Time;durP1;ratioP1;P1;durP2;ratioP2;P2;SDS_P1;SDS_P2;PMS_P1;PMS_P2;Temp;Humidity;BMP_temperature;BMP_pressure;BME280_temperature;BME280_humidity;BME280_pressure;Samples;Min_cycle;Max_cycle;Signal;HPM_P1;HPM_P2
2022/07/18 00:02:02;;;;;;;;;;;;;;;14.77;54.74;101969.36;1700121;84;25733;-55
2022/07/18 00:04:29;;;;;;;;;;;;;;;14.84;54.92;101966.95;1699895;84;26490;-55
2022/07/18 00:06:56;;;;;;;;;;;;;;;14.87;55.17;101968.05;1700021;84;25751;-53
2022/07/18 00:09:24;;;;;;;;;;;;;;;14.90;54.77;101969.63;1699896;84;27483;-56
2022/07/18 00:11:52;;;;;;;;;;;;;;;14.92;54.62;101971.70;1702299;83;25811;-55
2022/07/18 00:14:20;;;;;;;;;;;;;;;14.93;55.12;101971.56;1707727;84;25868;-55
2022/07/18 00:16:47;;;;;;;;;;;;;;;14.91;54.85;101972.22;1707850;83;25705;-55
2022/07/18 00:19:14;;;;;;;;;;;;;;;14.88;54.45;101972.47;1707966;84;25698;-54
2022/07/18 00:21:41;;;;;;;;;;;;;;;14.85;54.73;101968.67;1707860;83;28197;-55
2022/07/18 00:24:08;;;;;;;;;;;;;;;14.85;54.31;101965.96;1707789;84;25902;-55
2022/07/18 00:26:34;;;;;;;;;;;;;;;14.86;54.12;101962.27;1707970;84;26437;-53
2022/07/18 00:29:02;;;;;;;;;;;;;;;14.81;54.15;101972.66;1707714;84;25782;-56
2022/07/18 00:31:29;;;;;;;;;;;;;;;14.77;54.08;101969.84;1707977;84;25691;-55
2022/07/18 00:33:55;;;;;;;;;;;;;;;14.77;54.45;101971.20;1707991;83;27479;-55
2022/07/18 00:36:22;;;;;;;;;;;;;;;14.74;53.99;101966.91;1707708;84;25703;-55
2022/07/18 00:38:48;;;;;;;;;;;;;;;14.70;53.95;101967.68;1702792;84;25523;-55
2022/07/18 00:41:15;;;;;;;;;;;;;;;14.71;53.95;101965.34;1692376;83;25823;-54
2022/07/18 00:43:43;;;;;;;;;;;;;;;14.75;53.96;101969.14;1692374;84;25681;-55
2022/07/18 00:46:11;;;;;;;;;;;;;;;14.75;53.68;101967.79;1698667;83;27482;-54
2022/07/18 00:48:39;;;;;;;;;;;;;;;14.77;53.55;101965.78;1707703;83;25769;-55
2022/07/18 00:51:06;;;;;;;;;;;;;;;14.79;53.75;101961.94;1708106;84;25453;-55
2022/07/18 00:53:33;;;;;;;;;;;;;;;14.82;53.69;101967.61;1707896;84;25759;-54
2022/07/18 00:56:01;;;;;;;;;;;;;;;14.84;53.82;101965.12;1707945;83;25913;-55
2022/07/18 00:58:30;;;;;;;;;;;;;;;14.86;53.78;101962.27;1707739;84;27542;-55
2022/07/18 01:03:42;;;;;;;;;;;;;;;14.83;53.54;101962.05;1707773;83;25712;-55
2022/07/18 01:06:09;;;;;;;;;;;;;;;14.81;53.67;101962.67;1707743;83;25738;-52
2022/07/18 01:08:37;;;;;;;;;;;;;;;14.80;53.69;101966.88;1707870;83;25704;-55
2022/07/18 01:11:05;;;;;;;;;;;;;;;14.77;54.09;101967.13;1707883;84;27435;-55
2022/07/18 01:13:32;;;;;;;;;;;;;;;14.72;53.92;101967.53;1707583;84;25889;-54
2022/07/18 01:15:58;;;;;;;;;;;;;;;14.69;54.12;101960.55;1707899;83;25869;-54
2022/07/18 01:18:25;;;;;;;;;;;;;;;14.66;53.96;101960.80;1707835;84;25748;-54
2022/07/18 01:20:52;;;;;;;;;;;;;;;14.64;54.47;101960.55;1707738;84;27191;-54
2022/07/18 01:23:18;;;;;;;;;;;;;;;14.60;54.50;101964.02;1707972;83;27670;-54
2022/07/18 01:25:45;;;;;;;;;;;;;;;14.58;54.72;101972.77;1707667;84;25438;-53
2022/07/18 01:28:12;;;;;;;;;;;;;;;14.52;55.02;101969.25;1707866;83;25703;-54
2022/07/18 01:30:39;;;;;;;;;;;;;;;14.43;55.17;101968.21;1707762;84;26250;-54
2022/07/18 01:33:05;;;;;;;;;;;;;;;14.38;55.63;101974.50;1707925;83;25674;-54
2022/07/18 01:35:32;;;;;;;;;;;;;;;14.29;55.82;101977.52;1707631;84;27489;-54
2022/07/18 01:38:00;;;;;;;;;;;;;;;14.21;55.80;101980.86;1707787;84;25825;-54
2022/07/18 01:40:27;;;;;;;;;;;;;;;14.15;57.51;101979.16;1679674;85;25726;-53
2022/07/18 01:42:54;;;;;;;;;;;;;;;14.02;57.87;101982.92;1679261;85;25687;-53
2022/07/18 01:45:21;;;;;;;;;;;;;;;13.97;57.58;101977.53;1680750;84;25759;-55
2022/07/18 01:47:48;;;;;;;;;;;;;;;13.95;57.39;101982.21;1697783;83;28363;-55
2022/07/18 01:50:16;;;;;;;;;;;;;;;13.93;57.08;101976.94;1697720;83;25740;-54
2022/07/18 01:52:43;;;;;;;;;;;;;;;13.93;57.01;101981.00;1697822;84;26238;-54
2022/07/18 01:55:10;;;;;;;;;;;;;;;13.95;57.04;101980.34;1698024;84;25688;-55
2022/07/18 01:57:37;;;;;;;;;;;;;;;13.99;56.96;101983.65;1697806;84;25545;-55
2022/07/18 02:00:07;;;;;;;;;;;;;;;13.91;57.50;101984.31;1697728;84;27498;-55
2022/07/18 02:02:33;;;;;;;;;;;;;;;13.83;57.17;101978.69;1697694;84;25692;-54
2022/07/18 02:05:01;;;;;;;;;;;;;;;13.80;57.54;101977.58;1696212;84;25795;-54
2022/07/18 02:07:33;;;;;;;;;;;;;;;13.79;57.15;101976.73;1695349;83;25721;-54
2022/07/18 02:10:01;;;;;;;;;;;;;;;13.71;57.60;101982.77;1695451;83;25745;-54
2022/07/18 02:12:28;;;;;;;;;;;;;;;13.62;57.81;101979.48;1699975;83;28338;-54
2022/07/18 02:14:55;;;;;;;;;;;;;;;13.57;57.85;101979.01;1710769;84;25796;-55
2022/07/18 02:17:21;;;;;;;;;;;;;;;13.50;58.41;101981.83;1710996;84;25711;-54
2022/07/18 02:19:48;;;;;;;;;;;;;;;13.50;58.00;101985.87;1710932;83;25630;-55
2022/07/18 02:22:14;;;;;;;;;;;;;;;13.48;57.91;101983.31;1710822;83;25797;-54
2022/07/18 02:24:41;;;;;;;;;;;;;;;13.49;58.01;101988.25;1710919;84;27503;-55
2022/07/18 02:27:08;;;;;;;;;;;;;;;13.45;57.98;101987.13;1710732;84;25816;-54
2022/07/18 02:29:36;;;;;;;;;;;;;;;13.50;57.52;101987.23;1710897;84;25708;-54
2022/07/18 02:32:04;;;;;;;;;;;;;;;13.57;57.39;101997.94;1710858;84;26270;-54
2022/07/18 02:34:30;;;;;;;;;;;;;;;13.67;57.53;101998.02;1711329;84;25919;-54
2022/07/18 02:36:57;;;;;;;;;;;;;;;13.70;57.21;101999.13;1710954;84;27493;-54
2022/07/18 02:39:23;;;;;;;;;;;;;;;13.69;56.87;101996.06;1710686;84;26031;-56
2022/07/18 02:41:50;;;;;;;;;;;;;;;13.76;56.98;102008.08;1710784;84;25674;-54
2022/07/18 02:44:16;;;;;;;;;;;;;;;13.80;57.27;102005.98;1710683;83;25675;-55
2022/07/18 02:46:44;;;;;;;;;;;;;;;13.82;57.49;102006.72;1706003;84;26010;-54
2022/07/18 02:49:26;;;;;;;;;;;;;;;13.84;57.13;102004.75;1703113;84;28061;-53
2022/07/18 02:51:39;;;;;;;;;;;;;;;13.85;57.40;102007.32;1700564;84;25692;-55
2022/07/18 02:54:06;;;;;;;;;;;;;;;13.87;57.30;102012.12;1703020;84;25677;-54
2022/07/18 02:56:32;;;;;;;;;;;;;;;13.89;57.26;102020.09;1703259;84;25685;-54
2022/07/18 02:58:59;;;;;;;;;;;;;;;13.88;57.13;102017.02;1703276;84;25709;-54
2022/07/18 03:01:25;;;;;;;;;;;;;;;13.89;57.33;102019.62;1703146;84;27494;-54
2022/07/18 03:03:52;;;;;;;;;;;;;;;13.89;57.43;102018.27;1703191;84;26532;-53
2022/07/18 03:06:18;;;;;;;;;;;;;;;13.87;57.30;102022.06;1703145;83;25720;-54
2022/07/18 03:08:45;;;;;;;;;;;;;;;13.85;57.41;102024.91;1703388;84;25674;-55
2022/07/18 03:11:11;;;;;;;;;;;;;;;13.86;57.76;102026.63;1703116;84;25800;-54
2022/07/18 03:13:38;;;;;;;;;;;;;;;13.84;57.56;102023.69;1703112;84;26875;-54
2022/07/18 03:16:06;;;;;;;;;;;;;;;13.86;57.40;102032.52;1703146;84;25661;-55
2022/07/18 03:18:32;;;;;;;;;;;;;;;13.87;57.18;102032.88;1703273;84;25710;-53
2022/07/18 03:20:59;;;;;;;;;;;;;;;13.89;57.33;102026.86;1703058;84;25657;-55
2022/07/18 03:23:25;;;;;;;;;;;;;;;13.95;56.99;102025.49;1703317;84;25725;-54
2022/07/18 03:25:52;;;;;;;;;;;;;;;13.98;56.65;102028.80;1703184;84;27504;-54
2022/07/18 03:28:19;;;;;;;;;;;;;;;13.98;56.69;102029.30;1703019;84;25745;-52
2022/07/18 03:30:45;;;;;;;;;;;;;;;14.00;56.37;102024.13;1703236;84;25737;-54
2022/07/18 03:33:12;;;;;;;;;;;;;;;14.03;56.26;102022.50;1703157;84;25801;-52
2022/07/18 03:35:38;;;;;;;;;;;;;;;14.05;55.99;102023.74;1703134;83;25736;-54
2022/07/18 03:38:05;;;;;;;;;;;;;;;14.10;56.25;102024.20;1703272;83;28354;-53
2022/07/18 03:40:32;;;;;;;;;;;;;;;14.14;56.38;102024.80;1710805;83;25800;-55
2022/07/18 03:42:58;;;;;;;;;;;;;;;14.21;56.10;102024.64;1710674;83;25745;-55
2022/07/18 03:45:25;;;;;;;;;;;;;;;14.24;55.89;102032.04;1710735;84;25761;-55
2022/07/18 03:47:52;;;;;;;;;;;;;;;14.29;55.67;102028.06;1711062;84;26560;-55
2022/07/18 03:50:19;;;;;;;;;;;;;;;14.32;55.63;102029.17;1710714;84;27491;-56
2022/07/18 03:52:46;;;;;;;;;;;;;;;14.33;55.61;102032.25;1710652;84;25783;-56
2022/07/18 03:55:13;;;;;;;;;;;;;;;14.36;55.52;102032.84;1711054;83;25826;-55
2022/07/18 03:57:39;;;;;;;;;;;;;;;14.44;55.41;102029.97;1711083;84;25741;-56
2022/07/18 04:00:09;;;;;;;;;;;;;;;14.49;55.32;102036.72;1711015;84;26394;-56
2022/07/18 04:02:41;;;;;;;;;;;;;;;14.51;55.26;102040.63;1711020;84;27539;-55
2022/07/18 04:05:09;;;;;;;;;;;;;;;14.47;54.99;102049.52;1705338;84;25437;-56
2022/07/18 04:07:36;;;;;;;;;;;;;;;14.45;54.76;102040.66;1703610;84;25726;-56
2022/07/18 04:10:05;;;;;;;;;;;;;;;14.48;54.78;102040.88;1703359;84;25766;-56
2022/07/18 04:12:32;;;;;;;;;;;;;;;14.51;54.70;102040.16;1703476;84;26049;-55
2022/07/18 04:15:02;;;;;;;;;;;;;;;14.55;54.75;102042.11;1703240;84;27510;-56
2022/07/18 04:17:29;;;;;;;;;;;;;;;14.58;54.63;102043.17;1703109;83;27381;-56
2022/07/18 04:19:55;;;;;;;;;;;;;;;14.63;54.55;102038.72;1703359;84;25709;-55
2022/07/18 04:22:22;;;;;;;;;;;;;;;14.67;54.39;102040.22;1703372;84;25773;-56
2022/07/18 04:24:49;;;;;;;;;;;;;;;14.71;54.51;102043.01;1703211;83;26255;-55
2022/07/18 04:27:15;;;;;;;;;;;;;;;14.77;54.53;102049.27;1703332;84;27486;-55
2022/07/18 04:29:42;;;;;;;;;;;;;;;14.85;54.34;102055.36;1703062;84;25708;-54
2022/07/18 04:32:09;;;;;;;;;;;;;;;14.87;54.03;102060.16;1703548;83;25627;-55
2022/07/18 04:34:36;;;;;;;;;;;;;;;14.93;53.97;102057.42;1703307;84;25737;-55
2022/07/18 04:37:04;;;;;;;;;;;;;;;15.00;53.72;102056.77;1703374;84;25787;-55
2022/07/18 04:39:30;;;;;;;;;;;;;;;15.06;53.28;102060.76;1708074;84;29541;-56
2022/07/18 04:41:57;;;;;;;;;;;;;;;15.07;53.03;102065.19;1710728;83;25811;-55
2022/07/18 04:44:23;;;;;;;;;;;;;;;15.13;52.89;102066.03;1710908;83;25781;-55
2022/07/18 04:46:50;;;;;;;;;;;;;;;15.13;52.82;102061.97;1706074;84;25574;-53
2022/07/18 04:49:17;;;;;;;;;;;;;;;15.17;53.05;102062.55;1703256;84;25503;-56
2022/07/18 04:51:43;;;;;;;;;;;;;;;15.25;53.00;102058.66;1703432;83;28429;-56
2022/07/18 04:54:12;;;;;;;;;;;;;;;15.32;52.76;102060.34;1703179;83;25730;-55
2022/07/18 04:56:38;;;;;;;;;;;;;;;15.41;52.63;102060.00;1703211;84;25759;-55
2022/07/18 04:59:05;;;;;;;;;;;;;;;15.49;52.60;102056.11;1703164;84;25741;-54
2022/07/18 05:01:32;;;;;;;;;;;;;;;15.56;52.78;102059.98;1705109;84;25730;-55
2022/07/18 05:03:58;;;;;;;;;;;;;;;15.61;52.82;102059.09;1710726;83;27493;-55
2022/07/18 05:06:25;;;;;;;;;;;;;;;15.69;52.83;102057.02;1710713;83;25918;-56
2022/07/18 05:08:52;;;;;;;;;;;;;;;15.76;52.98;102067.70;1710834;83;25789;-53
2022/07/18 05:11:19;;;;;;;;;;;;;;;15.85;52.75;102063.31;1710959;84;26666;-55
2022/07/18 05:13:46;;;;;;;;;;;;;;;15.90;52.69;102069.68;1709563;84;25810;-56
2022/07/18 05:16:13;;;;;;;;;;;;;;;15.91;52.22;102057.83;1707933;84;27600;-55
2022/07/18 05:18:39;;;;;;;;;;;;;;;15.95;52.31;102064.71;1707887;83;25897;-55
2022/07/18 05:21:07;;;;;;;;;;;;;;;15.98;52.24;102061.70;1707889;84;25674;-55
2022/07/18 05:23:33;;;;;;;;;;;;;;;16.02;52.38;102067.22;1708108;83;26319;-56
2022/07/18 05:26:00;;;;;;;;;;;;;;;16.11;52.35;102058.71;1707970;84;25742;-54
2022/07/18 05:28:27;;;;;;;;;;;;;;;16.17;52.64;102056.81;1708144;83;27544;-56
2022/07/18 05:30:54;;;;;;;;;;;;;;;16.20;51.81;102062.45;1707571;84;25837;-55
2022/07/18 05:33:21;;;;;;;;;;;;;;;16.26;52.05;102064.11;1707998;83;25770;-55
2022/07/18 05:35:47;;;;;;;;;;;;;;;16.31;51.84;102065.52;1707889;83;25709;-56
2022/07/18 05:38:14;;;;;;;;;;;;;;;16.37;51.74;102064.94;1706286;83;25663;-56
2022/07/18 05:40:40;;;;;;;;;;;;;;;16.39;51.58;102064.30;1692073;84;27547;-54
2022/07/18 05:43:07;;;;;;;;;;;;;;;16.42;51.07;102065.39;1692140;83;25831;-54
2022/07/18 05:45:34;;;;;;;;;;;;;;;16.45;51.21;102062.36;1694772;84;25839;-55
2022/07/18 05:48:05;;;;;;;;;;;;;;;16.50;51.19;102063.29;1708136;84;25664;-54
2022/07/18 05:50:32;;;;;;;;;;;;;;;16.55;50.82;102059.14;1707674;83;25497;-56
2022/07/18 05:52:58;;;;;;;;;;;;;;;16.61;50.69;102058.23;1708049;84;27560;-55
2022/07/18 05:55:25;;;;;;;;;;;;;;;16.63;51.16;102050.28;1707769;84;25754;-53
2022/07/18 05:57:52;;;;;;;;;;;;;;;16.68;50.50;102052.56;1708167;84;25793;-55
2022/07/18 06:00:20;;;;;;;;;;;;;;;16.72;50.53;102052.62;1707951;83;25829;-56
2022/07/18 06:02:49;;;;;;;;;;;;;;;16.77;50.33;102044.91;1707739;83;26052;-55
2022/07/18 06:05:15;;;;;;;;;;;;;;;16.82;50.23;102038.52;1698203;83;27501;-52
2022/07/18 06:07:42;;;;;;;;;;;;;;;16.86;50.11;102048.10;1695014;84;26365;-53
2022/07/18 06:10:10;;;;;;;;;;;;;;;16.89;49.99;102044.23;1694786;84;26164;-55
2022/07/18 06:12:40;;;;;;;;;;;;;;;16.94;49.97;102050.13;1695177;83;26390;-55
2022/07/18 06:15:08;;;;;;;;;;;;;;;16.99;49.85;102044.22;1690550;83;25428;-55
2022/07/18 06:17:35;;;;;;;;;;;;;;;17.07;49.87;102043.49;1689570;85;27639;-54
2022/07/18 06:20:05;;;;;;;;;;;;;;;17.15;49.85;102035.45;1689775;84;26266;-55
2022/07/18 06:22:31;;;;;;;;;;;;;;;17.21;49.87;102032.16;1689900;84;25697;-55
2022/07/18 06:24:57;;;;;;;;;;;;;;;17.28;49.16;102032.39;1689694;85;25692;-54
2022/07/18 06:27:24;;;;;;;;;;;;;;;17.31;49.03;102032.95;1689695;85;25765;-54
2022/07/18 06:29:50;;;;;;;;;;;;;;;17.38;49.03;102026.41;1689614;84;27441;-57
2022/07/18 06:32:17;;;;;;;;;;;;;;;17.47;49.12;102024.66;1689658;85;25805;-56
2022/07/18 06:34:43;;;;;;;;;;;;;;;17.60;49.87;102027.02;1689941;84;25317;-57
2022/07/18 06:37:10;;;;;;;;;;;;;;;17.70;49.32;102031.91;1689797;85;26178;-55
2022/07/18 06:39:37;;;;;;;;;;;;;;;17.79;49.21;102024.19;1697920;84;25782;-56
2022/07/18 06:42:04;;;;;;;;;;;;;;;17.86;48.41;102026.29;1702287;84;27478;-55
2022/07/18 06:44:30;;;;;;;;;;;;;;;17.94;48.74;102022.29;1702122;84;25756;-55
2022/07/18 06:46:59;;;;;;;;;;;;;;;18.09;48.78;102023.48;1691146;84;25471;-55
2022/07/18 06:49:25;;;;;;;;;;;;;;;18.23;48.12;102025.33;1700768;83;25700;-55
2022/07/18 06:51:52;;;;;;;;;;;;;;;18.28;47.92;102017.53;1707527;83;25747;-54
2022/07/18 06:54:20;;;;;;;;;;;;;;;18.35;47.94;102019.97;1707452;84;27563;-55
2022/07/18 06:56:46;;;;;;;;;;;;;;;18.43;47.82;102021.39;1707183;83;25781;-55
2022/07/18 06:59:13;;;;;;;;;;;;;;;18.51;47.66;102019.78;1707306;84;25767;-55
2022/07/18 07:01:39;;;;;;;;;;;;;;;18.58;47.41;102016.77;1707456;84;26398;-55
2022/07/18 07:04:06;;;;;;;;;;;;;;;18.65;47.11;102015.10;1701663;84;25758;-55
2022/07/18 07:06:32;;;;;;;;;;;;;;;18.75;46.70;102017.22;1687252;85;27640;-55
2022/07/18 07:08:59;;;;;;;;;;;;;;;18.77;45.88;102016.56;1687057;85;25694;-55
2022/07/18 07:11:25;;;;;;;;;;;;;;;18.84;46.22;102011.30;1687148;85;25743;-55
2022/07/18 07:13:52;;;;;;;;;;;;;;;18.89;45.63;102005.37;1687871;83;25628;-56
2022/07/18 07:16:19;;;;;;;;;;;;;;;18.97;45.52;102006.80;1692168;84;25769;-55
2022/07/18 07:18:45;;;;;;;;;;;;;;;19.08;45.82;102003.81;1692221;84;28381;-55
2022/07/18 07:21:12;;;;;;;;;;;;;;;19.26;45.33;102002.03;1692032;84;25773;-55
2022/07/18 07:23:40;;;;;;;;;;;;;;;19.47;44.62;102009.78;1692049;84;25850;-55
2022/07/18 07:26:08;;;;;;;;;;;;;;;19.55;44.76;102004.35;1692348;84;25801;-55
2022/07/18 07:28:34;;;;;;;;;;;;;;;19.57;44.52;102003.68;1692623;84;25486;-55
2022/07/18 07:31:01;;;;;;;;;;;;;;;19.63;44.77;102003.53;1692189;84;27539;-55
2022/07/18 07:33:27;;;;;;;;;;;;;;;19.72;45.17;101991.61;1692247;84;25622;-55
2022/07/18 07:35:54;;;;;;;;;;;;;;;19.84;44.11;101988.05;1692219;84;25798;-56
2022/07/18 07:38:22;;;;;;;;;;;;;;;19.97;43.88;101990.31;1693338;84;25768;-56
2022/07/18 07:40:48;;;;;;;;;;;;;;;20.09;42.48;101993.04;1700124;84;25729;-56
2022/07/18 07:43:16;;;;;;;;;;;;;;;20.24;42.23;101991.86;1700243;84;27580;-56
2022/07/18 07:45:52;;;;;;;;;;;;;;;20.36;43.33;101990.99;1697080;84;25698;-56
2022/07/18 07:48:19;;;;;;;;;;;;;;;20.44;43.07;101979.22;1695876;83;25733;-55
2022/07/18 07:50:46;;;;;;;;;;;;;;;20.61;42.21;101985.00;1717832;83;25772;-56
2022/07/18 07:53:13;;;;;;;;;;;;;;;20.74;41.55;101985.02;1717911;83;25946;-56
2022/07/18 07:55:40;;;;;;;;;;;;;;;20.85;41.93;101978.32;1717952;83;27495;-55
2022/07/18 07:58:06;;;;;;;;;;;;;;;20.93;41.65;101978.30;1717923;83;26007;-55
2022/07/18 08:00:33;;;;;;;;;;;;;;;20.97;40.66;101976.06;1717734;83;25906;-55
2022/07/18 08:03:02;;;;;;;;;;;;;;;20.96;40.12;101973.85;1717824;83;25710;-56
2022/07/18 08:05:35;;;;;;;;;;;;;;;21.06;39.36;101964.93;1690987;83;25740;-55
2022/07/18 08:08:01;;;;;;;;;;;;;;;21.22;39.32;101970.83;1687444;85;28413;-55
2022/07/18 08:10:29;;;;;;;;;;;;;;;21.33;39.82;101971.47;1687382;83;26296;-55
2022/07/18 08:12:56;;;;;;;;;;;;;;;21.39;39.11;101970.24;1687211;83;26589;-56
2022/07/18 08:15:24;;;;;;;;;;;;;;;21.47;38.33;101962.48;1687081;83;25720;-54
2022/07/18 08:17:51;;;;;;;;;;;;;;;21.66;38.68;101964.46;1687290;85;26067;-56
2022/07/18 08:20:17;;;;;;;;;;;;;;;21.78;38.29;101966.30;1687252;85;27105;-56
2022/07/18 08:23:05;;;;;;;;;;;;;;;21.95;37.15;101969.75;1686925;83;26383;-54
2022/07/18 08:25:34;;;;;;;;;;;;;;;22.02;37.61;101966.61;1687171;83;25745;-55
2022/07/18 08:28:02;;;;;;;;;;;;;;;22.19;36.82;101961.33;1687431;85;25766;-55
2022/07/18 08:30:29;;;;;;;;;;;;;;;22.29;36.78;101959.72;1687022;85;25967;-56
2022/07/18 08:32:56;;;;;;;;;;;;;;;22.40;36.22;101968.56;1687553;85;27453;-55
2022/07/18 08:35:23;;;;;;;;;;;;;;;22.49;35.08;101963.34;1687078;85;25756;-56
2022/07/18 08:37:51;;;;;;;;;;;;;;;22.57;36.13;101961.02;1687348;85;25777;-55
2022/07/18 08:40:17;;;;;;;;;;;;;;;22.70;35.84;101958.48;1698768;84;25723;-56
2022/07/18 08:42:44;;;;;;;;;;;;;;;22.76;35.12;101962.37;1700104;84;26250;-55
2022/07/18 08:45:10;;;;;;;;;;;;;;;22.81;35.40;101959.40;1699621;83;27476;-57
2022/07/18 08:47:37;;;;;;;;;;;;;;;22.96;35.52;101965.39;1700009;83;25644;-56
2022/07/18 08:50:06;;;;;;;;;;;;;;;23.09;35.25;101956.48;1700025;83;25762;-56
2022/07/18 08:52:35;;;;;;;;;;;;;;;23.14;34.38;101950.77;1700248;84;25674;-55
2022/07/18 08:55:02;;;;;;;;;;;;;;;23.32;33.12;101959.14;1700057;84;25805;-55
2022/07/18 08:57:29;;;;;;;;;;;;;;;23.25;33.54;101954.93;1700004;84;27474;-56
2022/07/18 08:59:55;;;;;;;;;;;;;;;23.26;33.99;101959.91;1699744;84;26294;-56
2022/07/18 09:02:28;;;;;;;;;;;;;;;23.40;33.84;101956.78;1699472;83;25738;-55
2022/07/18 09:04:54;;;;;;;;;;;;;;;23.53;33.39;101958.33;1700342;83;25845;-56
2022/07/18 09:07:27;;;;;;;;;;;;;;;23.66;33.80;101950.75;1699625;84;25767;-56
2022/07/18 09:09:57;;;;;;;;;;;;;;;23.86;32.90;101946.83;1699855;84;27522;-56
2022/07/18 09:12:26;;;;;;;;;;;;;;;24.04;32.67;101940.05;1699922;83;25814;-55
2022/07/18 09:14:54;;;;;;;;;;;;;;;24.10;30.19;101935.66;1701223;84;25714;-56
2022/07/18 09:17:30;;;;;;;;;;;;;;;24.23;31.23;101928.37;1707745;83;25743;-55
2022/07/18 09:20:00;;;;;;;;;;;;;;;24.49;30.65;101936.49;1707751;84;26127;-56
2022/07/18 09:22:32;;;;;;;;;;;;;;;24.67;30.51;101933.27;1707919;84;27446;-55
2022/07/18 09:25:24;;;;;;;;;;;;;;;24.91;31.32;101920.59;1707516;83;25975;-56
2022/07/18 09:27:52;;;;;;;;;;;;;;;25.17;31.49;101932.23;1707867;83;25813;-55
2022/07/18 09:30:37;;;;;;;;;;;;;;;25.42;28.96;101927.58;1707565;84;25805;-56
2022/07/18 09:33:07;;;;;;;;;;;;;;;25.49;29.90;101922.96;1707910;83;26011;-56
2022/07/18 09:35:46;;;;;;;;;;;;;;;25.88;28.89;101923.23;1707866;83;27724;-55
2022/07/18 09:38:25;;;;;;;;;;;;;;;26.23;28.24;101925.27;1706460;84;25803;-55
2022/07/18 09:40:51;;;;;;;;;;;;;;;26.68;28.12;101919.05;1691978;84;25629;-55
2022/07/18 09:43:19;;;;;;;;;;;;;;;27.11;26.52;101907.14;1692509;84;25772;-56
2022/07/18 09:45:49;;;;;;;;;;;;;;;27.29;26.66;101923.00;1696363;83;25528;-55
2022/07/18 09:48:18;;;;;;;;;;;;;;;27.32;25.70;101922.02;1707933;83;27688;-56
2022/07/18 09:50:55;;;;;;;;;;;;;;;27.43;25.33;101925.19;1707654;82;25770;-56
2022/07/18 09:53:24;;;;;;;;;;;;;;;27.48;24.47;101911.55;1707578;83;26351;-56
2022/07/18 09:55:55;;;;;;;;;;;;;;;27.71;25.52;101913.73;1707598;83;25747;-55
2022/07/18 09:58:26;;;;;;;;;;;;;;;28.06;25.79;101911.03;1708146;83;25715;-56
2022/07/18 10:00:55;;;;;;;;;;;;;;;28.49;24.94;101912.11;1707759;84;27456;-56
2022/07/18 10:03:23;;;;;;;;;;;;;;;28.73;23.72;101903.48;1707598;84;25782;-55
2022/07/18 10:05:51;;;;;;;;;;;;;;;28.99;23.57;101899.55;1679629;85;25713;-56
2022/07/18 10:08:20;;;;;;;;;;;;;;;29.33;23.19;101897.20;1679395;85;25744;-56
2022/07/18 10:10:49;;;;;;;;;;;;;;;29.47;23.88;101892.30;1679602;84;25836;-56
2022/07/18 10:13:17;;;;;;;;;;;;;;;29.73;24.01;101895.73;1679298;84;27574;-56
2022/07/18 10:15:44;;;;;;;;;;;;;;;29.90;23.20;101887.55;1675724;84;25833;-55
2022/07/18 10:18:15;;;;;;;;;;;;;;;30.12;23.62;101892.55;1671564;85;25754;-55
2022/07/18 10:20:48;;;;;;;;;;;;;;;30.66;21.53;101886.84;1671824;85;25732;-55
2022/07/18 10:23:27;;;;;;;;;;;;;;;31.13;21.87;101886.44;1671259;85;28842;-56
2022/07/18 10:26:17;;;;;;;;;;;;;;;31.59;20.49;101882.30;1672130;84;27508;-56
2022/07/18 10:28:59;;;;;;;;;;;;;;;32.13;20.83;101885.44;1671387;85;25807;-56
2022/07/18 10:31:34;;;;;;;;;;;;;;;32.31;19.58;101880.16;1671669;85;25470;-56
2022/07/18 10:34:10;;;;;;;;;;;;;;;32.00;20.09;101874.64;1671635;85;25743;-56
2022/07/18 10:36:56;;;;;;;;;;;;;;;32.42;20.09;101883.92;1671827;85;25927;-56
2022/07/18 10:39:37;;;;;;;;;;;;;;;32.84;20.03;101866.39;1684327;84;27642;-56
2022/07/18 10:42:12;;;;;;;;;;;;;;;32.32;20.00;101871.23;1693594;84;25929;-56
2022/07/18 10:44:40;;;;;;;;;;;;;;;32.43;20.04;101870.85;1693859;84;25820;-56
2022/07/18 10:47:17;;;;;;;;;;;;;;;31.65;20.22;101866.81;1698543;84;25746;-55
2022/07/18 10:49:58;;;;;;;;;;;;;;;31.01;20.50;101873.43;1700144;83;25453;-56
2022/07/18 10:52:38;;;;;;;;;;;;;;;30.96;20.02;101866.92;1698803;84;27492;-56
2022/07/18 10:55:16;;;;;;;;;;;;;;;30.84;19.93;101858.08;1699700;83;25743;-56
2022/07/18 10:57:52;;;;;;;;;;;;;;;30.00;19.83;101866.20;1699468;84;26563;-56
2022/07/18 11:00:31;;;;;;;;;;;;;;;30.43;19.99;101859.97;1701067;82;25704;-56
2022/07/18 11:03:03;;;;;;;;;;;;;;;31.45;19.84;101854.80;1699621;83;25641;-56
2022/07/18 11:05:34;;;;;;;;;;;;;;;32.43;17.98;101849.41;1700102;84;27485;-56
2022/07/18 11:08:05;;;;;;;;;;;;;;;33.21;17.74;101842.81;1699737;84;25911;-57
2022/07/18 11:13:28;;;;;;;;;;;;;;;33.97;17.77;101846.56;1700198;84;25746;-56
2022/07/18 11:16:10;;;;;;;;;;;;;;;32.97;17.95;101855.39;1699971;83;25517;-56
2022/07/18 11:18:47;;;;;;;;;;;;;;;32.09;18.65;101843.06;1699867;84;27655;-56
2022/07/18 11:21:18;;;;;;;;;;;;;;;32.27;17.08;101841.42;1699458;83;27379;-57
2022/07/18 11:23:48;;;;;;;;;;;;;;;32.75;17.92;101847.84;1699786;83;25806;-56
2022/07/18 11:26:18;;;;;;;;;;;;;;;33.49;17.16;101838.08;1699665;84;26195;-56
2022/07/18 11:28:46;;;;;;;;;;;;;;;33.97;17.39;101836.80;1699523;84;25724;-56
2022/07/18 11:31:13;;;;;;;;;;;;;;;33.57;17.40;101833.98;1699666;83;28274;-56
2022/07/18 11:33:45;;;;;;;;;;;;;;;33.13;17.60;101841.07;1700146;83;25798;-56
2022/07/18 11:36:15;;;;;;;;;;;;;;;33.77;17.17;101826.31;1699977;84;25731;-57
2022/07/18 11:38:51;;;;;;;;;;;;;;;33.99;17.25;101829.00;1697395;84;25760;-57
2022/07/18 11:41:18;;;;;;;;;;;;;;;33.31;17.39;101822.54;1693453;84;25994;-56
2022/07/18 11:43:46;;;;;;;;;;;;;;;32.41;18.26;101827.10;1693835;84;27486;-57
2022/07/18 11:46:14;;;;;;;;;;;;;;;31.75;19.10;101825.86;1696333;84;25763;-56
2022/07/18 11:48:42;;;;;;;;;;;;;;;31.05;20.07;101836.27;1699912;83;25731;-56
2022/07/18 11:51:18;;;;;;;;;;;;;;;30.65;20.40;101831.04;1699836;84;25812;-56
2022/07/18 11:53:45;;;;;;;;;;;;;;;30.11;20.87;101829.82;1699129;83;25486;-56
2022/07/18 11:56:12;;;;;;;;;;;;;;;29.85;21.28;101827.80;1699797;84;27536;-56
2022/07/18 11:58:40;;;;;;;;;;;;;;;29.42;21.42;101836.72;1699864;84;25777;-56
2022/07/18 12:01:08;;;;;;;;;;;;;;;29.07;21.66;101829.11;1700016;84;25483;-56
2022/07/18 12:03:37;;;;;;;;;;;;;;;29.01;21.86;101832.27;1699710;83;26330;-56
2022/07/18 12:06:17;;;;;;;;;;;;;;;29.02;21.87;101827.05;1700028;84;25694;-56
2022/07/18 12:08:46;;;;;;;;;;;;;;;29.38;21.92;101822.19;1699437;84;29604;-57
2022/07/18 12:11:27;;;;;;;;;;;;;;;29.07;21.80;101828.28;1698600;84;26022;-57
2022/07/18 12:13:56;;;;;;;;;;;;;;;29.17;22.23;101829.95;1698358;83;25714;-56
2022/07/18 12:16:29;;;;;;;;;;;;;;;29.28;22.07;101828.28;1699682;83;25802;-56
2022/07/18 12:19:05;;;;;;;;;;;;;;;29.65;21.45;101819.28;1698645;84;26320;-56
2022/07/18 12:21:52;;;;;;;;;;;;;;;31.09;20.77;101821.32;1699239;83;27506;-57
2022/07/18 12:24:22;;;;;;;;;;;;;;;32.63;19.88;101814.00;1699431;84;25703;-56
2022/07/18 12:26:49;;;;;;;;;;;;;;;33.12;17.37;101810.95;1699802;84;25753;-56
2022/07/18 12:29:15;;;;;;;;;;;;;;;32.77;18.05;101821.41;1699462;84;25799;-55
2022/07/18 12:31:43;;;;;;;;;;;;;;;32.33;18.37;101815.85;1700093;84;25700;-57
2022/07/18 12:34:15;;;;;;;;;;;;;;;31.71;18.88;101817.71;1699892;83;27385;-56
2022/07/18 12:36:52;;;;;;;;;;;;;;;31.15;19.47;101819.81;1699710;84;25721;-56
2022/07/18 12:39:31;;;;;;;;;;;;;;;30.93;20.30;101819.63;1696745;84;25727;-56
2022/07/18 12:41:59;;;;;;;;;;;;;;;31.26;20.34;101824.14;1692800;84;25738;-56
2022/07/18 12:44:27;;;;;;;;;;;;;;;31.54;20.02;101817.70;1693687;84;25922;-56
2022/07/18 12:46:55;;;;;;;;;;;;;;;31.56;19.60;101817.44;1698258;84;27431;-56
2022/07/18 12:49:21;;;;;;;;;;;;;;;31.65;19.15;101811.75;1699459;83;25786;-56